sensor_id;sensor_type;location;lat;lon;timestamp;P1;durP1;ratioP1;P2;durP2;ratioP2
38591;SDS011;24356;48.460;11.450;2022-09-17T00:00:46;2.70;;;1.40;;
38591;SDS011;24356;48.460;11.450;2022-09-17T00:03:13;2.03;;;1.50;;
38591;SDS011;24356;48.460;11.450;2022-09-17T00:05:39;2.92;;;1.23;;
38591;SDS011;24356;48.460;11.450;2022-09-17T00:08:06;3.80;;;1.50;;
38591;SDS011;24356;48.460;11.450;2022-09-17T00:10:36;5.85;;;1.50;;
38591;SDS011;24356;48.460;11.450;2022-09-17T00:13:05;1.85;;;1.20;;
38591;SDS011;24356;48.460;11.450;2022-09-17T00:15:31;2.45;;;1.65;;
38591;SDS011;24356;48.460;11.450;2022-09-17T00:17:57;2.00;;;1.20;;
38591;SDS011;24356;48.460;11.450;2022-09-17T00:20:23;3.13;;;1.15;;
38591;SDS011;24356;48.460;11.450;2022-09-17T00:22:52;5.18;;;1.30;;
38591;SDS011;24356;48.460;11.450;2022-09-17T00:25:18;1.95;;;1.05;;
38591;SDS011;24356;48.460;11.450;2022-09-17T00:27:44;1.42;;;1.10;;
38591;SDS011;24356;48.460;11.450;2022-09-17T00:30:11;3.22;;;1.30;;
38591;SDS011;24356;48.460;11.450;2022-09-17T00:32:37;2.80;;;1.35;;
38591;SDS011;24356;48.460;11.450;2022-09-17T00:35:03;3.40;;;1.30;;
38591;SDS011;24356;48.460;11.450;2022-09-17T00:37:29;2.88;;;1.38;;
38591;SDS011;24356;48.460;11.450;2022-09-17T00:39:55;2.50;;;1.20;;
38591;SDS011;24356;48.460;11.450;2022-09-17T00:42:23;1.77;;;1.05;;
38591;SDS011;24356;48.460;11.450;2022-09-17T00:44:50;1.20;;;0.98;;
38591;SDS011;24356;48.460;11.450;2022-09-17T00:47:26;2.55;;;1.40;;
38591;SDS011;24356;48.460;11.450;2022-09-17T00:49:58;2.63;;;1.17;;
38591;SDS011;24356;48.460;11.450;2022-09-17T00:52:28;1.45;;;0.95;;
38591;SDS011;24356;48.460;11.450;2022-09-17T00:54:59;3.42;;;1.10;;
38591;SDS011;24356;48.460;11.450;2022-09-17T00:57:30;1.75;;;1.13;;
38591;SDS011;24356;48.460;11.450;2022-09-17T00:59:56;1.73;;;1.20;;
38591;SDS011;24356;48.460;11.450;2022-09-17T01:02:22;2.42;;;1.45;;
38591;SDS011;24356;48.460;11.450;2022-09-17T01:04:49;2.58;;;1.40;;
38591;SDS011;24356;48.460;11.450;2022-09-17T01:07:26;3.53;;;1.55;;
38591;SDS011;24356;48.460;11.450;2022-09-17T01:10:20;2.67;;;1.30;;
38591;SDS011;24356;48.460;11.450;2022-09-17T01:13:29;2.03;;;1.27;;
38591;SDS011;24356;48.460;11.450;2022-09-17T01:22:21;2.90;;;1.40;;
38591;SDS011;24356;48.460;11.450;2022-09-17T01:33:39;2.28;;;1.52;;
38591;SDS011;24356;48.460;11.450;2022-09-17T01:36:19;2.58;;;1.50;;
38591;SDS011;24356;48.460;11.450;2022-09-17T01:39:09;2.00;;;1.50;;
38591;SDS011;24356;48.460;11.450;2022-09-17T01:41:58;1.83;;;1.40;;
38591;SDS011;24356;48.460;11.450;2022-09-17T01:47:24;2.95;;;1.80;;
38591;SDS011;24356;48.460;11.450;2022-09-17T01:49:59;3.15;;;1.90;;
38591;SDS011;24356;48.460;11.450;2022-09-17T01:52:30;3.03;;;1.75;;
38591;SDS011;24356;48.460;11.450;2022-09-17T01:54:59;3.13;;;1.60;;
38591;SDS011;24356;48.460;11.450;2022-09-17T01:57:30;8.88;;;2.20;;
38591;SDS011;24356;48.460;11.450;2022-09-17T02:00:01;5.20;;;1.85;;
38591;SDS011;24356;48.460;11.450;2022-09-17T02:02:55;7.05;;;2.50;;
38591;SDS011;24356;48.460;11.450;2022-09-17T02:05:29;4.22;;;2.03;;
38591;SDS011;24356;48.460;11.450;2022-09-17T02:10:44;2.70;;;2.20;;
38591;SDS011;24356;48.460;11.450;2022-09-17T02:13:27;3.50;;;2.25;;
38591;SDS011;24356;48.460;11.450;2022-09-17T02:16:07;2.28;;;2.00;;
38591;SDS011;24356;48.460;11.450;2022-09-17T02:18:54;5.25;;;1.90;;
38591;SDS011;24356;48.460;11.450;2022-09-17T02:24:37;3.67;;;2.20;;
38591;SDS011;24356;48.460;11.450;2022-09-17T02:30:20;3.38;;;2.35;;
38591;SDS011;24356;48.460;11.450;2022-09-17T02:32:46;4.03;;;2.17;;
38591;SDS011;24356;48.460;11.450;2022-09-17T02:35:12;10.30;;;2.17;;
38591;SDS011;24356;48.460;11.450;2022-09-17T02:37:39;3.55;;;2.42;;
38591;SDS011;24356;48.460;11.450;2022-09-17T02:40:07;3.92;;;2.30;;
38591;SDS011;24356;48.460;11.450;2022-09-17T02:48:19;4.30;;;2.08;;
38591;SDS011;24356;48.460;11.450;2022-09-17T02:50:56;5.10;;;1.73;;
38591;SDS011;24356;48.460;11.450;2022-09-17T02:53:59;3.50;;;2.25;;
38591;SDS011;24356;48.460;11.450;2022-09-17T02:56:48;5.50;;;2.00;;
38591;SDS011;24356;48.460;11.450;2022-09-17T02:59:23;3.03;;;1.85;;
38591;SDS011;24356;48.460;11.450;2022-09-17T03:04:33;2.67;;;1.90;;
38591;SDS011;24356;48.460;11.450;2022-09-17T03:07:03;5.07;;;2.00;;
38591;SDS011;24356;48.460;11.450;2022-09-17T03:09:36;5.13;;;2.15;;
38591;SDS011;24356;48.460;11.450;2022-09-17T03:12:01;3.78;;;1.88;;
38591;SDS011;24356;48.460;11.450;2022-09-17T03:14:28;4.22;;;1.90;;
38591;SDS011;24356;48.460;11.450;2022-09-17T03:16:53;7.82;;;1.80;;
38591;SDS011;24356;48.460;11.450;2022-09-17T03:19:19;2.17;;;1.52;;
38591;SDS011;24356;48.460;11.450;2022-09-17T03:21:44;5.55;;;1.83;;
38591;SDS011;24356;48.460;11.450;2022-09-17T03:24:10;2.10;;;1.88;;
38591;SDS011;24356;48.460;11.450;2022-09-17T03:26:36;5.28;;;1.92;;
38591;SDS011;24356;48.460;11.450;2022-09-17T03:29:03;2.47;;;1.73;;
38591;SDS011;24356;48.460;11.450;2022-09-17T03:31:29;3.95;;;1.83;;
38591;SDS011;24356;48.460;11.450;2022-09-17T03:33:56;4.53;;;1.90;;
38591;SDS011;24356;48.460;11.450;2022-09-17T03:36:22;3.47;;;1.90;;
38591;SDS011;24356;48.460;11.450;2022-09-17T03:38:48;4.60;;;1.90;;
38591;SDS011;24356;48.460;11.450;2022-09-17T03:41:17;3.63;;;1.67;;
38591;SDS011;24356;48.460;11.450;2022-09-17T03:43:43;2.63;;;1.60;;
38591;SDS011;24356;48.460;11.450;2022-09-17T03:46:08;3.20;;;1.65;;
38591;SDS011;24356;48.460;11.450;2022-09-17T03:48:34;4.35;;;1.70;;
38591;SDS011;24356;48.460;11.450;2022-09-17T03:51:01;3.47;;;1.90;;
38591;SDS011;24356;48.460;11.450;2022-09-17T03:53:27;3.15;;;1.73;;
38591;SDS011;24356;48.460;11.450;2022-09-17T03:55:52;2.78;;;1.80;;
38591;SDS011;24356;48.460;11.450;2022-09-17T03:58:18;3.50;;;1.42;;
38591;SDS011;24356;48.460;11.450;2022-09-17T04:00:43;2.63;;;1.80;;
38591;SDS011;24356;48.460;11.450;2022-09-17T04:03:09;4.68;;;2.00;;
38591;SDS011;24356;48.460;11.450;2022-09-17T04:05:34;6.30;;;1.73;;
38591;SDS011;24356;48.460;11.450;2022-09-17T04:08:00;4.97;;;1.48;;
38591;SDS011;24356;48.460;11.450;2022-09-17T04:10:26;6.47;;;2.05;;
38591;SDS011;24356;48.460;11.450;2022-09-17T04:12:51;4.57;;;1.90;;
38591;SDS011;24356;48.460;11.450;2022-09-17T04:15:17;3.33;;;1.40;;
38591;SDS011;24356;48.460;11.450;2022-09-17T04:17:42;2.20;;;1.83;;
38591;SDS011;24356;48.460;11.450;2022-09-17T04:20:08;4.47;;;1.77;;
38591;SDS011;24356;48.460;11.450;2022-09-17T04:22:34;4.03;;;1.67;;
38591;SDS011;24356;48.460;11.450;2022-09-17T04:24:59;5.03;;;1.90;;
38591;SDS011;24356;48.460;11.450;2022-09-17T04:27:25;6.28;;;2.05;;
38591;SDS011;24356;48.460;11.450;2022-09-17T04:29:50;3.83;;;2.15;;
38591;SDS011;24356;48.460;11.450;2022-09-17T04:32:16;2.78;;;1.65;;
38591;SDS011;24356;48.460;11.450;2022-09-17T04:34:41;3.22;;;1.70;;
38591;SDS011;24356;48.460;11.450;2022-09-17T04:37:07;2.08;;;1.75;;
38591;SDS011;24356;48.460;11.450;2022-09-17T04:39:33;3.58;;;1.90;;
38591;SDS011;24356;48.460;11.450;2022-09-17T04:42:01;4.60;;;1.80;;
38591;SDS011;24356;48.460;11.450;2022-09-17T04:44:27;3.03;;;1.70;;
38591;SDS011;24356;48.460;11.450;2022-09-17T04:46:53;6.38;;;1.85;;
38591;SDS011;24356;48.460;11.450;2022-09-17T04:49:18;3.15;;;1.40;;
38591;SDS011;24356;48.460;11.450;2022-09-17T04:51:44;2.88;;;2.00;;
38591;SDS011;24356;48.460;11.450;2022-09-17T04:54:09;4.65;;;2.42;;
38591;SDS011;24356;48.460;11.450;2022-09-17T04:56:35;6.13;;;1.95;;
38591;SDS011;24356;48.460;11.450;2022-09-17T04:59:00;5.00;;;2.20;;
38591;SDS011;24356;48.460;11.450;2022-09-17T05:01:26;2.92;;;1.80;;
38591;SDS011;24356;48.460;11.450;2022-09-17T05:03:53;4.50;;;1.90;;
38591;SDS011;24356;48.460;11.450;2022-09-17T05:06:18;4.25;;;2.08;;
38591;SDS011;24356;48.460;11.450;2022-09-17T05:08:44;4.72;;;2.10;;
38591;SDS011;24356;48.460;11.450;2022-09-17T05:11:09;5.28;;;1.88;;
38591;SDS011;24356;48.460;11.450;2022-09-17T05:13:35;7.85;;;1.90;;
38591;SDS011;24356;48.460;11.450;2022-09-17T05:16:01;4.18;;;1.70;;
38591;SDS011;24356;48.460;11.450;2022-09-17T05:18:27;5.55;;;1.80;;
38591;SDS011;24356;48.460;11.450;2022-09-17T05:20:52;2.90;;;1.83;;
38591;SDS011;24356;48.460;11.450;2022-09-17T05:23:18;4.90;;;1.73;;
38591;SDS011;24356;48.460;11.450;2022-09-17T05:25:44;2.38;;;1.70;;
38591;SDS011;24356;48.460;11.450;2022-09-17T05:28:09;6.15;;;1.80;;
38591;SDS011;24356;48.460;11.450;2022-09-17T05:30:36;5.03;;;2.22;;
38591;SDS011;24356;48.460;11.450;2022-09-17T05:33:03;4.95;;;1.83;;
38591;SDS011;24356;48.460;11.450;2022-09-17T05:35:31;3.03;;;1.73;;
38591;SDS011;24356;48.460;11.450;2022-09-17T05:37:58;3.38;;;1.67;;
38591;SDS011;24356;48.460;11.450;2022-09-17T05:40:28;4.85;;;1.90;;
38591;SDS011;24356;48.460;11.450;2022-09-17T05:42:58;7.38;;;1.60;;
38591;SDS011;24356;48.460;11.450;2022-09-17T05:45:25;4.25;;;1.58;;
38591;SDS011;24356;48.460;11.450;2022-09-17T05:47:54;7.88;;;2.63;;
38591;SDS011;24356;48.460;11.450;2022-09-17T05:50:21;10.82;;;2.65;;
38591;SDS011;24356;48.460;11.450;2022-09-17T05:52:47;5.57;;;2.28;;
38591;SDS011;24356;48.460;11.450;2022-09-17T05:55:13;3.08;;;1.90;;
38591;SDS011;24356;48.460;11.450;2022-09-17T05:57:39;7.38;;;3.28;;
38591;SDS011;24356;48.460;11.450;2022-09-17T06:00:04;4.22;;;2.10;;
38591;SDS011;24356;48.460;11.450;2022-09-17T06:02:30;6.15;;;3.97;;
38591;SDS011;24356;48.460;11.450;2022-09-17T06:04:57;6.88;;;3.10;;
38591;SDS011;24356;48.460;11.450;2022-09-17T06:07:25;7.50;;;2.38;;
38591;SDS011;24356;48.460;11.450;2022-09-17T06:09:54;5.75;;;2.13;;
38591;SDS011;24356;48.460;11.450;2022-09-17T06:12:21;9.60;;;4.50;;
38591;SDS011;24356;48.460;11.450;2022-09-17T06:14:47;6.82;;;2.30;;
38591;SDS011;24356;48.460;11.450;2022-09-17T06:17:13;5.35;;;2.50;;
38591;SDS011;24356;48.460;11.450;2022-09-17T06:19:38;7.45;;;2.08;;
38591;SDS011;24356;48.460;11.450;2022-09-17T06:22:04;3.38;;;1.80;;
38591;SDS011;24356;48.460;11.450;2022-09-17T06:24:30;4.88;;;1.70;;
38591;SDS011;24356;48.460;11.450;2022-09-17T06:26:56;5.63;;;1.67;;
38591;SDS011;24356;48.460;11.450;2022-09-17T06:29:22;6.15;;;1.60;;
38591;SDS011;24356;48.460;11.450;2022-09-17T06:31:48;6.72;;;1.77;;
38591;SDS011;24356;48.460;11.450;2022-09-17T06:34:14;6.35;;;1.90;;
38591;SDS011;24356;48.460;11.450;2022-09-17T06:36:40;4.68;;;1.80;;
38591;SDS011;24356;48.460;11.450;2022-09-17T06:39:06;7.00;;;1.55;;
38591;SDS011;24356;48.460;11.450;2022-09-17T06:41:31;5.85;;;1.73;;
38591;SDS011;24356;48.460;11.450;2022-09-17T06:43:57;9.18;;;2.40;;
38591;SDS011;24356;48.460;11.450;2022-09-17T06:46:23;4.85;;;1.60;;
38591;SDS011;24356;48.460;11.450;2022-09-17T06:48:49;8.80;;;1.80;;
38591;SDS011;24356;48.460;11.450;2022-09-17T06:51:14;6.38;;;1.67;;
38591;SDS011;24356;48.460;11.450;2022-09-17T06:53:40;4.75;;;1.70;;
38591;SDS011;24356;48.460;11.450;2022-09-17T06:56:08;5.82;;;1.60;;
38591;SDS011;24356;48.460;11.450;2022-09-17T06:58:34;9.68;;;1.73;;
38591;SDS011;24356;48.460;11.450;2022-09-17T07:01:02;7.07;;;1.67;;
38591;SDS011;24356;48.460;11.450;2022-09-17T07:03:29;3.85;;;1.50;;
38591;SDS011;24356;48.460;11.450;2022-09-17T07:05:56;8.00;;;1.98;;
38591;SDS011;24356;48.460;11.450;2022-09-17T07:08:22;6.63;;;1.80;;
38591;SDS011;24356;48.460;11.450;2022-09-17T07:10:48;3.25;;;1.33;;
38591;SDS011;24356;48.460;11.450;2022-09-17T07:13:14;5.38;;;1.70;;
38591;SDS011;24356;48.460;11.450;2022-09-17T07:15:39;6.80;;;1.77;;
38591;SDS011;24356;48.460;11.450;2022-09-17T07:18:09;8.75;;;1.58;;
38591;SDS011;24356;48.460;11.450;2022-09-17T07:20:37;4.82;;;1.73;;
38591;SDS011;24356;48.460;11.450;2022-09-17T07:23:03;6.97;;;2.00;;
38591;SDS011;24356;48.460;11.450;2022-09-17T07:25:30;6.95;;;1.75;;
38591;SDS011;24356;48.460;11.450;2022-09-17T07:27:56;9.07;;;1.55;;
38591;SDS011;24356;48.460;11.450;2022-09-17T07:30:21;7.90;;;1.70;;
38591;SDS011;24356;48.460;11.450;2022-09-17T07:32:47;8.73;;;1.45;;
38591;SDS011;24356;48.460;11.450;2022-09-17T07:35:12;12.35;;;1.65;;
38591;SDS011;24356;48.460;11.450;2022-09-17T07:37:38;9.35;;;1.90;;
38591;SDS011;24356;48.460;11.450;2022-09-17T07:40:04;6.35;;;1.60;;
38591;SDS011;24356;48.460;11.450;2022-09-17T07:42:31;6.90;;;1.60;;
38591;SDS011;24356;48.460;11.450;2022-09-17T07:44:57;6.70;;;1.55;;
38591;SDS011;24356;48.460;11.450;2022-09-17T07:47:23;9.15;;;1.38;;
38591;SDS011;24356;48.460;11.450;2022-09-17T07:49:48;5.47;;;1.40;;
38591;SDS011;24356;48.460;11.450;2022-09-17T07:52:14;10.80;;;2.03;;
38591;SDS011;24356;48.460;11.450;2022-09-17T07:54:39;5.78;;;1.67;;
38591;SDS011;24356;48.460;11.450;2022-09-17T07:57:05;4.57;;;1.55;;
38591;SDS011;24356;48.460;11.450;2022-09-17T07:59:30;5.88;;;1.50;;
38591;SDS011;24356;48.460;11.450;2022-09-17T08:01:56;5.50;;;1.38;;
38591;SDS011;24356;48.460;11.450;2022-09-17T08:04:22;6.53;;;1.40;;
38591;SDS011;24356;48.460;11.450;2022-09-17T08:06:47;7.85;;;1.50;;
38591;SDS011;24356;48.460;11.450;2022-09-17T08:09:13;4.72;;;1.45;;
38591;SDS011;24356;48.460;11.450;2022-09-17T08:11:40;4.75;;;1.20;;
38591;SDS011;24356;48.460;11.450;2022-09-17T08:14:08;5.82;;;1.30;;
38591;SDS011;24356;48.460;11.450;2022-09-17T08:16:35;5.95;;;1.50;;
38591;SDS011;24356;48.460;11.450;2022-09-17T08:19:00;3.30;;;1.50;;
38591;SDS011;24356;48.460;11.450;2022-09-17T08:21:27;7.18;;;1.20;;
38591;SDS011;24356;48.460;11.450;2022-09-17T08:23:52;9.38;;;1.55;;
38591;SDS011;24356;48.460;11.450;2022-09-17T08:26:19;5.25;;;1.33;;
38591;SDS011;24356;48.460;11.450;2022-09-17T08:28:50;5.30;;;1.40;;
38591;SDS011;24356;48.460;11.450;2022-09-17T08:31:20;3.60;;;1.20;;
38591;SDS011;24356;48.460;11.450;2022-09-17T08:33:47;5.78;;;1.50;;
38591;SDS011;24356;48.460;11.450;2022-09-17T08:36:13;4.88;;;1.42;;
38591;SDS011;24356;48.460;11.450;2022-09-17T08:38:40;10.52;;;1.83;;
38591;SDS011;24356;48.460;11.450;2022-09-17T08:41:23;5.57;;;1.48;;
38591;SDS011;24356;48.460;11.450;2022-09-17T08:46:58;5.32;;;1.35;;
38591;SDS011;24356;48.460;11.450;2022-09-17T08:49:36;2.78;;;1.20;;
38591;SDS011;24356;48.460;11.450;2022-09-17T09:01:19;4.95;;;1.30;;
38591;SDS011;24356;48.460;11.450;2022-09-17T09:05:56;2.42;;;0.77;;
38591;SDS011;24356;48.460;11.450;2022-09-17T09:08:29;2.42;;;1.00;;
38591;SDS011;24356;48.460;11.450;2022-09-17T09:11:19;4.30;;;1.10;;
38591;SDS011;24356;48.460;11.450;2022-09-17T09:13:51;4.57;;;1.00;;
38591;SDS011;24356;48.460;11.450;2022-09-17T09:16:25;2.78;;;0.90;;
38591;SDS011;24356;48.460;11.450;2022-09-17T09:18:58;2.40;;;0.80;;
38591;SDS011;24356;48.460;11.450;2022-09-17T09:21:46;1.90;;;1.00;;
38591;SDS011;24356;48.460;11.450;2022-09-17T09:24:44;2.05;;;1.00;;
38591;SDS011;24356;48.460;11.450;2022-09-17T09:27:33;5.57;;;0.98;;
38591;SDS011;24356;48.460;11.450;2022-09-17T09:30:09;6.25;;;0.75;;
38591;SDS011;24356;48.460;11.450;2022-09-17T09:32:47;3.25;;;1.00;;
38591;SDS011;24356;48.460;11.450;2022-09-17T09:35:17;3.60;;;1.30;;
38591;SDS011;24356;48.460;11.450;2022-09-17T09:37:46;2.50;;;1.00;;
38591;SDS011;24356;48.460;11.450;2022-09-17T09:42:50;4.20;;;1.10;;
38591;SDS011;24356;48.460;11.450;2022-09-17T09:45:25;8.20;;;1.80;;
38591;SDS011;24356;48.460;11.450;2022-09-17T09:48:06;7.97;;;3.85;;
38591;SDS011;24356;48.460;11.450;2022-09-17T09:54:02;3.03;;;1.40;;
38591;SDS011;24356;48.460;11.450;2022-09-17T09:56:20;4.00;;;1.73;;
38591;SDS011;24356;48.460;11.450;2022-09-17T09:59:26;2.88;;;1.08;;
38591;SDS011;24356;48.460;11.450;2022-09-17T10:01:51;2.35;;;1.10;;
38591;SDS011;24356;48.460;11.450;2022-09-17T10:04:24;3.45;;;1.30;;
38591;SDS011;24356;48.460;11.450;2022-09-17T10:06:52;2.95;;;1.00;;
38591;SDS011;24356;48.460;11.450;2022-09-17T10:09:24;1.80;;;1.00;;
38591;SDS011;24356;48.460;11.450;2022-09-17T10:14:33;3.50;;;0.80;;
38591;SDS011;24356;48.460;11.450;2022-09-17T10:17:17;3.13;;;1.20;;
38591;SDS011;24356;48.460;11.450;2022-09-17T10:24:52;4.13;;;1.30;;
38591;SDS011;24356;48.460;11.450;2022-09-17T10:27:21;3.88;;;1.10;;
38591;SDS011;24356;48.460;11.450;2022-09-17T10:29:55;2.78;;;1.13;;
38591;SDS011;24356;48.460;11.450;2022-09-17T10:32:39;3.33;;;1.30;;
38591;SDS011;24356;48.460;11.450;2022-09-17T10:35:13;1.95;;;1.10;;
38591;SDS011;24356;48.460;11.450;2022-09-17T10:37:50;4.63;;;1.17;;
38591;SDS011;24356;48.460;11.450;2022-09-17T10:42:46;5.55;;;1.60;;
38591;SDS011;24356;48.460;11.450;2022-09-17T10:45:24;3.00;;;1.40;;
38591;SDS011;24356;48.460;11.450;2022-09-17T10:47:51;5.85;;;1.90;;
38591;SDS011;24356;48.460;11.450;2022-09-17T10:50:19;4.47;;;1.27;;
38591;SDS011;24356;48.460;11.450;2022-09-17T10:52:51;5.72;;;1.33;;
38591;SDS011;24356;48.460;11.450;2022-09-17T10:58:01;2.65;;;1.20;;
38591;SDS011;24356;48.460;11.450;2022-09-17T11:00:49;4.30;;;1.50;;
38591;SDS011;24356;48.460;11.450;2022-09-17T11:06:11;5.20;;;1.30;;
38591;SDS011;24356;48.460;11.450;2022-09-17T11:11:38;2.85;;;1.05;;
38591;SDS011;24356;48.460;11.450;2022-09-17T11:20:16;5.15;;;1.42;;
38591;SDS011;24356;48.460;11.450;2022-09-17T11:23:26;5.15;;;1.40;;
38591;SDS011;24356;48.460;11.450;2022-09-17T11:31:44;6.68;;;1.30;;
38591;SDS011;24356;48.460;11.450;2022-09-17T11:39:46;3.78;;;1.38;;
38591;SDS011;24356;48.460;11.450;2022-09-17T11:42:35;5.45;;;1.15;;
38591;SDS011;24356;48.460;11.450;2022-09-17T11:45:11;6.93;;;1.35;;
38591;SDS011;24356;48.460;11.450;2022-09-17T11:48:16;6.90;;;1.50;;
38591;SDS011;24356;48.460;11.450;2022-09-17T11:50:57;4.20;;;1.08;;
38591;SDS011;24356;48.460;11.450;2022-09-17T11:53:46;3.13;;;1.27;;
38591;SDS011;24356;48.460;11.450;2022-09-17T11:59:32;3.45;;;1.23;;
38591;SDS011;24356;48.460;11.450;2022-09-17T12:05:24;2.00;;;1.20;;
38591;SDS011;24356;48.460;11.450;2022-09-17T12:08:18;5.35;;;1.67;;
38591;SDS011;24356;48.460;11.450;2022-09-17T12:14:48;8.40;;;1.55;;
38591;SDS011;24356;48.460;11.450;2022-09-17T12:17:28;4.55;;;1.23;;
38591;SDS011;24356;48.460;11.450;2022-09-17T12:20:23;6.57;;;1.60;;
38591;SDS011;24356;48.460;11.450;2022-09-17T12:22:56;5.60;;;1.38;;
38591;SDS011;24356;48.460;11.450;2022-09-17T12:25:41;5.15;;;1.52;;
38591;SDS011;24356;48.460;11.450;2022-09-17T12:28:45;7.75;;;1.48;;
38591;SDS011;24356;48.460;11.450;2022-09-17T12:31:57;5.18;;;1.23;;
38591;SDS011;24356;48.460;11.450;2022-09-17T12:38:59;4.90;;;1.43;;
38591;SDS011;24356;48.460;11.450;2022-09-17T12:48:17;5.72;;;1.50;;
38591;SDS011;24356;48.460;11.450;2022-09-17T12:51:14;4.22;;;1.30;;
38591;SDS011;24356;48.460;11.450;2022-09-17T12:55:01;3.20;;;1.38;;
38591;SDS011;24356;48.460;11.450;2022-09-17T12:58:26;3.15;;;1.42;;
38591;SDS011;24356;48.460;11.450;2022-09-17T13:04:24;6.25;;;1.70;;
38591;SDS011;24356;48.460;11.450;2022-09-17T13:12:39;10.82;;;1.50;;
38591;SDS011;24356;48.460;11.450;2022-09-17T13:16:10;3.85;;;1.40;;
38591;SDS011;24356;48.460;11.450;2022-09-17T13:19:01;3.88;;;1.23;;
38591;SDS011;24356;48.460;11.450;2022-09-17T13:24:31;6.67;;;1.17;;
38591;SDS011;24356;48.460;11.450;2022-09-17T13:27:01;5.75;;;1.45;;
38591;SDS011;24356;48.460;11.450;2022-09-17T13:29:55;4.78;;;1.50;;
38591;SDS011;24356;48.460;11.450;2022-09-17T13:37:42;2.95;;;1.38;;
38591;SDS011;24356;48.460;11.450;2022-09-17T13:40:27;4.35;;;1.52;;
38591;SDS011;24356;48.460;11.450;2022-09-17T13:45:28;4.30;;;1.60;;
38591;SDS011;24356;48.460;11.450;2022-09-17T13:47:58;4.45;;;1.30;;
38591;SDS011;24356;48.460;11.450;2022-09-17T13:50:33;3.70;;;1.27;;
38591;SDS011;24356;48.460;11.450;2022-09-17T13:53:18;1.92;;;1.13;;
38591;SDS011;24356;48.460;11.450;2022-09-17T13:58:29;4.82;;;1.30;;
38591;SDS011;24356;48.460;11.450;2022-09-17T14:01:11;3.80;;;1.20;;
38591;SDS011;24356;48.460;11.450;2022-09-17T14:08:52;3.38;;;1.35;;
38591;SDS011;24356;48.460;11.450;2022-09-17T14:11:37;5.10;;;1.10;;
38591;SDS011;24356;48.460;11.450;2022-09-17T14:16:54;3.03;;;1.30;;
38591;SDS011;24356;48.460;11.450;2022-09-17T14:22:12;5.03;;;1.10;;
38591;SDS011;24356;48.460;11.450;2022-09-17T14:24:51;3.05;;;1.13;;
38591;SDS011;24356;48.460;11.450;2022-09-17T14:30:25;5.25;;;0.90;;
38591;SDS011;24356;48.460;11.450;2022-09-17T14:33:17;2.53;;;1.13;;
38591;SDS011;24356;48.460;11.450;2022-09-17T14:36:18;1.88;;;0.80;;
38591;SDS011;24356;48.460;11.450;2022-09-17T14:39:26;4.05;;;0.85;;
38591;SDS011;24356;48.460;11.450;2022-09-17T14:41:59;1.45;;;0.60;;
38591;SDS011;24356;48.460;11.450;2022-09-17T14:44:35;2.72;;;0.70;;
38591;SDS011;24356;48.460;11.450;2022-09-17T14:47:29;2.05;;;0.70;;
38591;SDS011;24356;48.460;11.450;2022-09-17T14:50:19;5.07;;;0.82;;
38591;SDS011;24356;48.460;11.450;2022-09-17T14:52:58;2.72;;;0.80;;
38591;SDS011;24356;48.460;11.450;2022-09-17T14:55:33;6.20;;;0.98;;
38591;SDS011;24356;48.460;11.450;2022-09-17T14:58:18;1.58;;;1.00;;
38591;SDS011;24356;48.460;11.450;2022-09-17T15:00:59;1.70;;;0.80;;
38591;SDS011;24356;48.460;11.450;2022-09-17T15:06:52;3.20;;;0.90;;
38591;SDS011;24356;48.460;11.450;2022-09-17T15:09:50;3.67;;;1.02;;
38591;SDS011;24356;48.460;11.450;2022-09-17T15:12:28;1.58;;;0.80;;
38591;SDS011;24356;48.460;11.450;2022-09-17T15:15:05;4.38;;;1.00;;
38591;SDS011;24356;48.460;11.450;2022-09-17T15:17:40;4.57;;;1.10;;
38591;SDS011;24356;48.460;11.450;2022-09-17T15:20:27;6.50;;;2.85;;
38591;SDS011;24356;48.460;11.450;2022-09-17T15:23:14;2.80;;;1.50;;
38591;SDS011;24356;48.460;11.450;2022-09-17T15:25:51;3.13;;;1.05;;
38591;SDS011;24356;48.460;11.450;2022-09-17T15:28:36;2.40;;;0.80;;
38591;SDS011;24356;48.460;11.450;2022-09-17T15:31:20;3.65;;;0.90;;
38591;SDS011;24356;48.460;11.450;2022-09-17T15:33:47;3.25;;;0.85;;
38591;SDS011;24356;48.460;11.450;2022-09-17T15:36:25;8.00;;;1.13;;
38591;SDS011;24356;48.460;11.450;2022-09-17T15:38:54;1.73;;;0.77;;
38591;SDS011;24356;48.460;11.450;2022-09-17T15:41:34;2.47;;;1.00;;
38591;SDS011;24356;48.460;11.450;2022-09-17T15:50:22;1.98;;;0.73;;
38591;SDS011;24356;48.460;11.450;2022-09-17T15:53:36;3.30;;;1.13;;
38591;SDS011;24356;48.460;11.450;2022-09-17T15:56:23;2.97;;;1.13;;
38591;SDS011;24356;48.460;11.450;2022-09-17T15:59:02;3.25;;;0.80;;
38591;SDS011;24356;48.460;11.450;2022-09-17T16:01:52;2.58;;;0.80;;
38591;SDS011;24356;48.460;11.450;2022-09-17T16:04:26;2.88;;;0.80;;
38591;SDS011;24356;48.460;11.450;2022-09-17T16:12:24;1.80;;;0.50;;
38591;SDS011;24356;48.460;11.450;2022-09-17T16:15:30;1.05;;;0.63;;
38591;SDS011;24356;48.460;11.450;2022-09-17T16:17:59;1.80;;;0.50;;
38591;SDS011;24356;48.460;11.450;2022-09-17T16:20:36;0.57;;;0.38;;
38591;SDS011;24356;48.460;11.450;2022-09-17T16:23:02;0.85;;;0.35;;
38591;SDS011;24356;48.460;11.450;2022-09-17T16:25:31;0.43;;;0.35;;
38591;SDS011;24356;48.460;11.450;2022-09-17T16:28:05;1.08;;;0.50;;
38591;SDS011;24356;48.460;11.450;2022-09-17T16:30:39;2.47;;;0.65;;
38591;SDS011;24356;48.460;11.450;2022-09-17T16:33:29;3.75;;;1.17;;
38591;SDS011;24356;48.460;11.450;2022-09-17T16:35:57;3.90;;;0.90;;
38591;SDS011;24356;48.460;11.450;2022-09-17T16:38:27;1.73;;;0.60;;
38591;SDS011;24356;48.460;11.450;2022-09-17T16:40:58;2.80;;;0.60;;
38591;SDS011;24356;48.460;11.450;2022-09-17T16:43:33;1.85;;;0.73;;
38591;SDS011;24356;48.460;11.450;2022-09-17T16:46:47;0.80;;;0.60;;
38591;SDS011;24356;48.460;11.450;2022-09-17T16:49:40;1.00;;;0.70;;
38591;SDS011;24356;48.460;11.450;2022-09-17T16:52:31;1.00;;;0.60;;
38591;SDS011;24356;48.460;11.450;2022-09-17T16:55:59;4.80;;;0.82;;
38591;SDS011;24356;48.460;11.450;2022-09-17T16:58:25;1.20;;;0.47;;
38591;SDS011;24356;48.460;11.450;2022-09-17T17:01:28;3.20;;;0.88;;
38591;SDS011;24356;48.460;11.450;2022-09-17T17:03:54;1.55;;;0.57;;
38591;SDS011;24356;48.460;11.450;2022-09-17T17:06:24;2.28;;;0.80;;
38591;SDS011;24356;48.460;11.450;2022-09-17T17:09:01;0.93;;;0.57;;
38591;SDS011;24356;48.460;11.450;2022-09-17T17:11:33;1.13;;;0.50;;
38591;SDS011;24356;48.460;11.450;2022-09-17T17:14:02;7.10;;;3.45;;
38591;SDS011;24356;48.460;11.450;2022-09-17T17:16:32;5.28;;;2.17;;
38591;SDS011;24356;48.460;11.450;2022-09-17T17:18:58;2.33;;;1.50;;
38591;SDS011;24356;48.460;11.450;2022-09-17T17:21:25;4.80;;;2.00;;
38591;SDS011;24356;48.460;11.450;2022-09-17T17:24:05;9.57;;;3.30;;
38591;SDS011;24356;48.460;11.450;2022-09-17T17:26:32;4.65;;;1.90;;
38591;SDS011;24356;48.460;11.450;2022-09-17T17:29:18;1.95;;;1.10;;
38591;SDS011;24356;48.460;11.450;2022-09-17T17:31:47;1.73;;;1.13;;
38591;SDS011;24356;48.460;11.450;2022-09-17T17:34:16;3.72;;;1.08;;
38591;SDS011;24356;48.460;11.450;2022-09-17T17:37:02;3.78;;;1.10;;
38591;SDS011;24356;48.460;11.450;2022-09-17T17:39:35;3.17;;;1.70;;
38591;SDS011;24356;48.460;11.450;2022-09-17T17:42:33;2.42;;;1.08;;
38591;SDS011;24356;48.460;11.450;2022-09-17T17:45:11;1.65;;;1.00;;
38591;SDS011;24356;48.460;11.450;2022-09-17T17:47:37;1.52;;;0.98;;
38591;SDS011;24356;48.460;11.450;2022-09-17T17:50:04;3.33;;;1.08;;
38591;SDS011;24356;48.460;11.450;2022-09-17T17:52:30;4.30;;;1.20;;
38591;SDS011;24356;48.460;11.450;2022-09-17T17:54:55;2.45;;;1.08;;